createdAt,value
2018-12-20T00:00:06.915Z,992.22
2018-12-20T00:01:06.848Z,992.23
2018-12-20T00:02:06.823Z,992.23
2018-12-20T00:03:06.858Z,992.24
2018-12-20T00:04:06.844Z,992.24
2018-12-20T00:05:06.806Z,992.20
2018-12-20T00:06:06.732Z,992.21
2018-12-20T00:07:06.706Z,992.24
2018-12-20T00:08:06.741Z,992.20
2018-12-20T00:09:06.662Z,992.19
2018-12-20T00:10:06.746Z,992.18
2018-12-20T00:11:06.705Z,992.15
2018-12-20T00:12:06.594Z,992.11
2018-12-20T00:13:06.576Z,992.15
2018-12-20T00:14:06.550Z,992.10
2018-12-20T00:15:06.653Z,992.11
2018-12-20T00:16:06.527Z,992.14
2018-12-20T00:17:06.486Z,992.11
2018-12-20T00:18:06.464Z,992.12
2018-12-20T00:19:06.442Z,992.12
2018-12-20T00:20:06.419Z,992.08
2018-12-20T00:21:06.505Z,992.15
2018-12-20T00:22:06.495Z,992.13
2018-12-20T00:23:06.488Z,992.07
2018-12-20T00:24:06.329Z,992.08
2018-12-20T00:25:06.307Z,992.08
2018-12-20T00:26:06.308Z,992.09
2018-12-20T00:27:06.328Z,992.08
2018-12-20T00:28:06.249Z,992.00
2018-12-20T00:29:06.218Z,992.04
2018-12-20T00:30:06.227Z,992.08
2018-12-20T00:31:13.360Z,992.04
2018-12-20T00:32:06.149Z,991.99
2018-12-20T00:33:06.222Z,991.99
2018-12-20T00:34:06.209Z,992.03
2018-12-20T00:35:06.142Z,992.00
2018-12-20T00:36:06.230Z,991.96
2018-12-20T00:37:06.145Z,991.95
2018-12-20T00:38:06.033Z,991.95
2018-12-20T00:39:06.115Z,992.00
2018-12-20T00:40:06.522Z,991.95
2018-12-20T00:41:05.940Z,991.96
2018-12-20T00:42:05.945Z,992.07
2018-12-20T00:43:05.897Z,992.03
2018-12-20T00:44:05.976Z,992.05
2018-12-20T00:45:05.851Z,992.02
2018-12-20T00:46:05.842Z,992.03
2018-12-20T00:47:05.918Z,992.09
2018-12-20T00:48:05.863Z,992.09
2018-12-20T00:49:05.764Z,992.07
2018-12-20T00:50:05.807Z,992.07
2018-12-20T00:51:05.821Z,992.11
2018-12-20T00:52:05.727Z,992.08
2018-12-20T00:53:05.707Z,992.03
2018-12-20T00:54:05.741Z,992.06
2018-12-20T00:55:05.753Z,992.06
2018-12-20T00:56:05.602Z,992.01
2018-12-20T00:57:05.582Z,992.03
2018-12-20T00:58:05.607Z,992.01
2018-12-20T00:59:05.590Z,992.05
2018-12-20T01:00:05.541Z,992.11
2018-12-20T01:01:05.620Z,992.10
2018-12-20T01:02:05.625Z,992.14
2018-12-20T01:03:05.461Z,992.09
2018-12-20T01:04:05.460Z,992.14
2018-12-20T01:05:05.458Z,992.13
2018-12-20T01:06:05.512Z,992.12
2018-12-20T01:07:05.394Z,992.16
2018-12-20T01:08:05.348Z,992.14
2018-12-20T01:09:05.465Z,992.18
2018-12-20T01:10:05.451Z,992.16
2018-12-20T01:11:05.294Z,992.19
2018-12-20T01:12:05.239Z,992.21
2018-12-20T01:13:05.259Z,992.21
2018-12-20T01:14:05.238Z,992.17
2018-12-20T01:15:05.194Z,992.25
2018-12-20T01:16:05.146Z,992.22
2018-12-20T01:17:05.124Z,992.23
2018-12-20T01:18:05.102Z,992.25
2018-12-20T01:19:05.228Z,992.27
2018-12-20T01:20:05.051Z,992.36
2018-12-20T01:21:05.152Z,992.35
2018-12-20T01:22:05.003Z,992.30
2018-12-20T01:23:04.986Z,992.28
2018-12-20T01:24:04.957Z,992.32
2018-12-20T01:25:04.941Z,992.30
2018-12-20T01:26:04.942Z,992.31
2018-12-20T01:27:04.941Z,992.34
2018-12-20T01:28:04.882Z,992.37
2018-12-20T01:29:05.094Z,992.37
2018-12-20T01:30:04.878Z,992.37
2018-12-20T01:31:04.804Z,992.37
2018-12-20T01:32:04.920Z,992.38
2018-12-20T01:33:04.764Z,992.38
2018-12-20T01:34:04.870Z,992.40
2018-12-20T01:35:04.724Z,992.41
2018-12-20T01:36:04.703Z,992.41
2018-12-20T01:37:04.746Z,992.45
2018-12-20T01:38:04.644Z,992.44
2018-12-20T01:39:04.704Z,992.41
2018-12-20T01:40:04.598Z,992.44
2018-12-20T01:41:04.569Z,992.47
2018-12-20T01:42:04.795Z,992.49
2018-12-20T01:43:04.524Z,992.48
2018-12-20T01:44:04.524Z,992.53
2018-12-20T01:45:04.685Z,992.49
2018-12-20T01:46:04.459Z,992.53
2018-12-20T01:47:04.442Z,992.52
2018-12-20T01:48:04.422Z,992.53
2018-12-20T01:49:04.397Z,992.55
2018-12-20T01:50:04.419Z,992.51
2018-12-20T01:51:04.517Z,992.49
2018-12-20T01:52:04.441Z,992.49
2018-12-20T01:53:04.302Z,992.54
2018-12-20T01:54:04.278Z,992.54
2018-12-20T01:55:04.249Z,992.55
2018-12-20T01:56:04.262Z,992.54
2018-12-20T01:57:04.235Z,992.57
2018-12-20T01:58:04.242Z,992.54
2018-12-20T01:59:04.166Z,992.57
2018-12-20T02:00:04.169Z,992.51
2018-12-20T02:01:04.120Z,992.54
2018-12-20T02:02:04.232Z,992.51
2018-12-20T02:03:04.088Z,992.53
2018-12-20T02:04:04.066Z,992.51
2018-12-20T02:05:04.037Z,992.50
2018-12-20T02:06:04.269Z,992.49
2018-12-20T02:07:03.981Z,992.52
2018-12-20T02:08:04.003Z,992.47
2018-12-20T02:09:03.948Z,992.52
2018-12-20T02:10:04.051Z,992.53
2018-12-20T02:11:03.895Z,992.56
2018-12-20T02:12:04.053Z,992.53
2018-12-20T02:13:03.941Z,992.53
2018-12-20T02:14:03.877Z,992.51
2018-12-20T02:15:03.977Z,992.49
2018-12-20T02:16:03.785Z,992.54
2018-12-20T02:17:03.895Z,992.53
2018-12-20T02:18:03.735Z,992.52
2018-12-20T02:19:03.760Z,992.54
2018-12-20T02:20:03.881Z,992.55
2018-12-20T02:21:03.668Z,992.56
2018-12-20T02:22:03.687Z,992.57
2018-12-20T02:23:03.645Z,992.55
2018-12-20T02:24:03.800Z,992.63
2018-12-20T02:25:03.753Z,992.59
2018-12-20T02:26:03.565Z,992.65
2018-12-20T02:27:03.587Z,992.63
2018-12-20T02:28:03.607Z,992.57
2018-12-20T02:29:03.504Z,992.58
2018-12-20T02:30:03.459Z,992.54
2018-12-20T02:31:03.568Z,992.54
2018-12-20T02:32:03.410Z,992.52
2018-12-20T02:33:03.430Z,992.52
2018-12-20T02:34:03.594Z,992.55
2018-12-20T02:35:03.623Z,992.54
2018-12-20T02:36:03.322Z,992.54
2018-12-20T02:37:03.331Z,992.53
2018-12-20T02:38:03.296Z,992.53
2018-12-20T02:39:03.264Z,992.51
2018-12-20T02:40:03.253Z,992.47
2018-12-20T02:41:03.319Z,992.50
2018-12-20T02:42:03.364Z,992.51
2018-12-20T02:43:03.260Z,992.49
2018-12-20T02:44:03.151Z,992.51
2018-12-20T02:45:10.759Z,992.47
2018-12-20T02:46:03.229Z,992.45
2018-12-20T02:47:03.173Z,992.45
2018-12-20T02:48:03.055Z,992.44
2018-12-20T02:49:03.065Z,992.45
2018-12-20T02:50:03.018Z,992.43
2018-12-20T02:51:03.050Z,992.44
2018-12-20T02:52:02.964Z,992.41
2018-12-20T02:53:02.946Z,992.40
2018-12-20T02:54:02.921Z,992.39
2018-12-20T02:55:02.915Z,992.42
2018-12-20T02:56:02.989Z,992.37
2018-12-20T02:57:02.850Z,992.38
2018-12-20T02:58:02.835Z,992.36
2018-12-20T02:59:02.809Z,992.29
2018-12-20T03:00:02.886Z,992.30
2018-12-20T03:01:02.792Z,992.31
2018-12-20T03:02:02.807Z,992.25
2018-12-20T03:03:02.722Z,992.26
2018-12-20T03:04:02.707Z,992.25
2018-12-20T03:05:02.695Z,992.24
2018-12-20T03:06:02.653Z,992.26
2018-12-20T03:07:02.824Z,992.23
2018-12-20T03:08:02.603Z,992.25
2018-12-20T03:09:02.776Z,992.21
2018-12-20T03:10:02.585Z,992.24
2018-12-20T03:11:02.767Z,992.20
2018-12-20T03:12:02.537Z,992.22
2018-12-20T03:13:02.691Z,992.17
2018-12-20T03:14:02.683Z,992.20
2018-12-20T03:15:02.468Z,992.15
2018-12-20T03:16:02.494Z,992.15
2018-12-20T03:17:02.405Z,992.19
2018-12-20T03:18:02.384Z,992.21
2018-12-20T03:19:02.530Z,992.19
2018-12-20T03:20:02.581Z,992.21
2018-12-20T03:21:02.346Z,992.22
2018-12-20T03:22:02.448Z,992.21
2018-12-20T03:23:02.268Z,992.21
2018-12-20T03:24:02.271Z,992.24
2018-12-20T03:25:02.223Z,992.22
2018-12-20T03:26:02.296Z,992.23
2018-12-20T03:27:02.472Z,992.25
2018-12-20T03:28:02.320Z,992.19
2018-12-20T03:29:02.307Z,992.19
2018-12-20T03:30:02.151Z,992.21
2018-12-20T03:31:02.631Z,992.27
2018-12-20T03:32:02.061Z,992.23
2018-12-20T03:33:02.133Z,992.25
2018-12-20T03:34:02.047Z,992.23
2018-12-20T03:35:01.991Z,992.20
2018-12-20T03:36:02.135Z,992.22
2018-12-20T03:37:02.084Z,992.21
2018-12-20T03:38:01.931Z,992.25
2018-12-20T03:39:01.905Z,992.20
2018-12-20T03:40:01.951Z,992.25
2018-12-20T03:41:01.930Z,992.19
2018-12-20T03:42:01.846Z,992.20
2018-12-20T03:43:01.966Z,992.19
2018-12-20T03:44:01.813Z,992.21
2018-12-20T03:45:01.956Z,992.20
2018-12-20T03:46:01.847Z,992.23
2018-12-20T03:47:01.967Z,992.22
2018-12-20T03:48:01.698Z,992.20
2018-12-20T03:49:01.680Z,992.25
2018-12-20T03:50:01.651Z,992.23
2018-12-20T03:51:01.680Z,992.17
2018-12-20T03:52:01.680Z,992.18
2018-12-20T03:53:01.717Z,992.17
2018-12-20T03:54:01.674Z,992.23
2018-12-20T03:55:01.819Z,992.19
2018-12-20T03:56:01.701Z,992.18
2018-12-20T03:57:01.496Z,992.23
2018-12-20T03:58:01.472Z,992.23
2018-12-20T03:59:01.494Z,992.23
2018-12-20T04:00:01.505Z,992.25
2018-12-20T04:01:01.546Z,992.23
2018-12-20T04:02:01.389Z,992.20
2018-12-20T04:03:01.595Z,992.22
2018-12-20T04:04:01.359Z,992.25
2018-12-20T04:05:01.452Z,992.26
2018-12-20T04:06:01.355Z,992.18
2018-12-20T04:07:01.290Z,992.20
2018-12-20T04:08:01.240Z,992.22
2018-12-20T04:09:01.353Z,992.19
2018-12-20T04:10:01.246Z,992.18
2018-12-20T04:11:01.482Z,992.22
2018-12-20T04:12:01.207Z,992.20
2018-12-20T04:13:01.273Z,992.26
2018-12-20T04:14:01.107Z,992.26
2018-12-20T04:15:01.085Z,992.19
2018-12-20T04:16:01.237Z,992.21
2018-12-20T04:17:01.077Z,992.24
2018-12-20T04:18:01.368Z,992.21
2018-12-20T04:19:01.096Z,992.22
2018-12-20T04:20:00.988Z,992.22
2018-12-20T04:21:01.022Z,992.22
2018-12-20T04:22:01.154Z,992.20
2018-12-20T04:23:00.902Z,992.17
2018-12-20T04:24:01.078Z,992.21
2018-12-20T04:25:00.887Z,992.21
2018-12-20T04:26:00.844Z,992.22
2018-12-20T04:27:00.809Z,992.24
2018-12-20T04:28:00.784Z,992.24
2018-12-20T04:29:00.757Z,992.26
2018-12-20T04:30:00.916Z,992.26
2018-12-20T04:31:00.995Z,992.24
2018-12-20T04:32:00.688Z,992.29
2018-12-20T04:33:00.974Z,992.32
2018-12-20T04:34:00.648Z,992.34
2018-12-20T04:35:00.621Z,992.29
2018-12-20T04:36:00.826Z,992.34
2018-12-20T04:37:00.759Z,992.33
2018-12-20T04:38:00.576Z,992.36
2018-12-20T04:39:00.584Z,992.38
2018-12-20T04:40:00.524Z,992.36
2018-12-20T04:41:00.514Z,992.37
2018-12-20T04:42:00.690Z,992.36
2018-12-20T04:43:00.735Z,992.34
2018-12-20T04:44:00.572Z,992.33
2018-12-20T04:45:00.395Z,992.33
2018-12-20T04:46:00.476Z,992.35
2018-12-20T04:47:00.414Z,992.39
2018-12-20T04:48:00.325Z,992.36
2018-12-20T04:49:00.447Z,992.40
2018-12-20T04:50:00.468Z,992.40
2018-12-20T04:51:00.393Z,992.39
2018-12-20T04:52:00.321Z,992.43
2018-12-20T04:53:00.204Z,992.42
2018-12-20T04:54:00.532Z,992.43
2018-12-20T04:55:00.230Z,992.44
2018-12-20T04:56:00.331Z,992.39
2018-12-20T04:57:00.185Z,992.42
2018-12-20T04:58:00.290Z,992.41
2018-12-20T04:59:00.160Z,992.44
2018-12-20T05:00:00.046Z,992.43
2018-12-20T05:01:00.028Z,992.43
2018-12-20T05:02:00.012Z,992.44
2018-12-20T05:02:59.988Z,992.45
2018-12-20T05:03:59.960Z,992.43
2018-12-20T05:04:59.955Z,992.43
2018-12-20T05:05:59.921Z,992.39
2018-12-20T05:06:59.912Z,992.35
2018-12-20T05:07:59.894Z,992.43
2018-12-20T05:08:59.947Z,992.43
2018-12-20T05:09:59.838Z,992.47
2018-12-20T05:10:59.913Z,992.48
2018-12-20T05:11:59.965Z,992.48
2018-12-20T05:12:59.961Z,992.45
2018-12-20T05:13:59.739Z,992.41
2018-12-20T05:14:59.952Z,992.53
2018-12-20T05:15:59.848Z,992.44
2018-12-20T05:16:59.670Z,992.50
2018-12-20T05:17:59.915Z,992.50
2018-12-20T05:18:59.728Z,992.45
2018-12-20T05:19:59.887Z,992.48
2018-12-20T05:20:59.870Z,992.53
2018-12-20T05:21:59.552Z,992.47
2018-12-20T05:22:59.530Z,992.53
2018-12-20T05:23:59.741Z,992.52
2018-12-20T05:24:59.482Z,992.51
2018-12-20T05:25:59.695Z,992.54
2018-12-20T05:26:59.437Z,992.59
2018-12-20T05:27:59.405Z,992.57
2018-12-20T05:28:59.393Z,992.54
2018-12-20T05:29:59.430Z,992.56
2018-12-20T05:30:59.335Z,992.56
2018-12-20T05:31:59.497Z,992.62
2018-12-20T05:32:59.395Z,992.58
2018-12-20T05:33:59.267Z,992.59
2018-12-20T05:34:59.290Z,992.57
2018-12-20T05:35:59.285Z,992.60
2018-12-20T05:36:59.289Z,992.59
2018-12-20T05:37:59.422Z,992.59
2018-12-20T05:38:59.177Z,992.60
2018-12-20T05:39:59.385Z,992.59
2018-12-20T05:40:59.255Z,992.54
2018-12-20T05:41:59.109Z,992.55
2018-12-20T05:42:59.137Z,992.58
2018-12-20T05:43:59.277Z,992.51
2018-12-20T05:44:59.096Z,992.54
2018-12-20T05:46:04.429Z,992.52
2018-12-20T05:46:58.975Z,992.53
2018-12-20T05:47:58.949Z,992.52
2018-12-20T05:48:58.995Z,992.54
2018-12-20T05:49:58.924Z,992.53
2018-12-20T05:50:59.008Z,992.59
2018-12-20T05:51:58.863Z,992.60
2018-12-20T05:52:58.842Z,992.56
2018-12-20T05:53:58.824Z,992.59
2018-12-20T05:54:58.976Z,992.58
2018-12-20T05:55:58.992Z,992.59
2018-12-20T05:56:58.782Z,992.59
2018-12-20T05:57:58.994Z,992.64
2018-12-20T05:58:58.729Z,992.60
2018-12-20T05:59:58.726Z,992.65
2018-12-20T06:00:58.678Z,992.67
2018-12-20T06:01:58.634Z,992.65
2018-12-20T06:02:58.798Z,992.68
2018-12-20T06:03:58.595Z,992.69
2018-12-20T06:04:58.587Z,992.68
2018-12-20T06:05:58.547Z,992.69
2018-12-20T06:06:58.567Z,992.70
2018-12-20T06:07:58.754Z,992.69
2018-12-20T06:08:58.687Z,992.72
2018-12-20T06:09:58.459Z,992.69
2018-12-20T06:10:58.652Z,992.68
2018-12-20T06:11:58.540Z,992.74
2018-12-20T06:12:58.412Z,992.76
2018-12-20T06:13:58.365Z,992.77
2018-12-20T06:14:58.425Z,992.76
2018-12-20T06:15:58.368Z,992.80
2018-12-20T06:16:58.288Z,992.79
2018-12-20T06:17:58.269Z,992.82
2018-12-20T06:18:58.371Z,992.76
2018-12-20T06:19:58.424Z,992.78
2018-12-20T06:20:58.241Z,992.73
2018-12-20T06:21:58.374Z,992.76
2018-12-20T06:22:58.175Z,992.76
2018-12-20T06:23:58.124Z,992.75
2018-12-20T06:24:58.130Z,992.77
2018-12-20T06:25:58.101Z,992.80
2018-12-20T06:26:58.070Z,992.76
2018-12-20T06:27:58.047Z,992.82
2018-12-20T06:28:58.025Z,992.83
2018-12-20T06:29:57.995Z,992.80
2018-12-20T06:30:57.978Z,992.82
2018-12-20T06:31:57.947Z,992.81
2018-12-20T06:32:57.944Z,992.86
2018-12-20T06:33:57.906Z,992.86
2018-12-20T06:34:57.917Z,992.88
2018-12-20T06:35:57.859Z,992.86
2018-12-20T06:36:57.836Z,992.90
2018-12-20T06:37:57.845Z,992.88
2018-12-20T06:38:57.789Z,992.90
2018-12-20T06:39:57.768Z,992.91
2018-12-20T06:40:57.762Z,992.85
2018-12-20T06:41:57.720Z,992.84
2018-12-20T06:42:57.691Z,992.83
2018-12-20T06:43:57.694Z,992.85
2018-12-20T06:44:57.667Z,992.90
2018-12-20T06:45:57.631Z,992.84
2018-12-20T06:46:57.605Z,992.86
2018-12-20T06:47:57.602Z,992.92
2018-12-20T06:48:57.560Z,992.89
2018-12-20T06:49:57.541Z,992.89
2018-12-20T06:50:57.512Z,992.91
2018-12-20T06:51:57.493Z,992.87
2018-12-20T06:52:57.480Z,992.88
2018-12-20T06:53:57.445Z,992.89
2018-12-20T06:54:57.423Z,992.86
2018-12-20T06:55:57.405Z,992.90
2018-12-20T06:56:57.383Z,992.98
2018-12-20T06:57:57.357Z,992.90
2018-12-20T06:58:57.337Z,992.93
2018-12-20T06:59:57.325Z,992.90
2018-12-20T07:00:57.290Z,992.90
2018-12-20T07:01:57.290Z,992.84
2018-12-20T07:02:57.249Z,992.85
2018-12-20T07:03:57.221Z,992.87
2018-12-20T07:04:57.229Z,992.89
2018-12-20T07:05:57.179Z,992.84
2018-12-20T07:06:57.150Z,992.91
2018-12-20T07:07:57.134Z,992.89
2018-12-20T07:08:57.102Z,992.97
2018-12-20T07:09:57.089Z,992.96
2018-12-20T07:10:57.057Z,992.97
2018-12-20T07:11:57.051Z,993.02
2018-12-20T07:12:57.019Z,993.00
2018-12-20T07:13:56.997Z,993.05
2018-12-20T07:14:56.975Z,993.03
2018-12-20T07:15:56.947Z,993.02
2018-12-20T07:16:56.949Z,993.02
2018-12-20T07:17:56.908Z,993.05
2018-12-20T07:18:56.907Z,993.05
2018-12-20T07:19:56.860Z,993.05
2018-12-20T07:20:56.832Z,992.99
2018-12-20T07:21:56.816Z,993.00
2018-12-20T07:22:56.794Z,993.02
2018-12-20T07:23:56.770Z,993.04
2018-12-20T07:24:56.738Z,993.04
2018-12-20T07:25:56.719Z,993.04
2018-12-20T07:26:56.700Z,993.06
2018-12-20T07:27:56.684Z,993.05
2018-12-20T07:28:56.652Z,993.01
2018-12-20T07:29:56.631Z,993.07
2018-12-20T07:30:56.618Z,993.11
2018-12-20T07:31:56.616Z,993.15
2018-12-20T07:32:56.580Z,993.12
2018-12-20T07:33:56.545Z,993.09
2018-12-20T07:34:56.525Z,993.09
2018-12-20T07:35:56.496Z,993.08
2018-12-20T07:36:56.471Z,993.09
2018-12-20T07:37:56.448Z,993.11
2018-12-20T07:38:56.448Z,993.14
2018-12-20T07:39:56.410Z,993.18
2018-12-20T07:40:56.410Z,993.12
2018-12-20T07:41:56.365Z,993.06
2018-12-20T07:42:56.328Z,993.13
2018-12-20T07:43:56.315Z,993.04
2018-12-20T07:44:56.299Z,993.14
2018-12-20T07:45:56.264Z,993.06
2018-12-20T07:46:56.263Z,993.04
2018-12-20T07:47:56.219Z,993.07
2018-12-20T07:48:56.199Z,993.09
2018-12-20T07:49:56.173Z,993.01
2018-12-20T07:50:56.160Z,993.04
2018-12-20T07:51:56.122Z,993.07
2018-12-20T07:52:56.102Z,993.04
2018-12-20T07:53:56.074Z,993.07
2018-12-20T07:54:56.057Z,993.10
2018-12-20T07:55:56.039Z,993.07
2018-12-20T07:56:56.016Z,993.14
2018-12-20T07:57:55.998Z,993.11
2018-12-20T07:58:55.969Z,993.13
2018-12-20T07:59:56.068Z,993.17
2018-12-20T08:00:55.922Z,993.16
2018-12-20T08:01:55.896Z,993.21
2018-12-20T08:02:55.886Z,993.23
2018-12-20T08:03:55.879Z,993.29
2018-12-20T08:04:55.892Z,993.29
2018-12-20T08:05:55.829Z,993.28
2018-12-20T08:06:55.786Z,993.30
2018-12-20T08:07:55.763Z,993.34
2018-12-20T08:08:55.738Z,993.32
2018-12-20T08:09:55.742Z,993.36
2018-12-20T08:10:55.703Z,993.36
2018-12-20T08:11:55.678Z,993.37
2018-12-20T08:12:55.669Z,993.34
2018-12-20T08:13:55.665Z,993.38
2018-12-20T08:14:55.607Z,993.48
2018-12-20T08:15:55.634Z,993.50
2018-12-20T08:16:55.591Z,993.44
2018-12-20T08:17:55.545Z,993.42
2018-12-20T08:18:55.539Z,993.43
2018-12-20T08:19:55.489Z,993.43
2018-12-20T08:20:55.495Z,993.49
2018-12-20T08:21:55.446Z,993.51
2018-12-20T08:22:55.424Z,993.62
2018-12-20T08:23:55.399Z,993.55
2018-12-20T08:24:55.379Z,993.56
2018-12-20T08:25:55.359Z,993.48
2018-12-20T08:26:55.335Z,993.49
2018-12-20T08:27:55.326Z,993.50
2018-12-20T08:28:55.309Z,993.57
2018-12-20T08:29:55.264Z,993.57
2018-12-20T08:30:55.248Z,993.54
2018-12-20T08:31:55.224Z,993.56
2018-12-20T08:32:55.210Z,993.59
2018-12-20T08:33:55.171Z,993.58
2018-12-20T08:34:55.158Z,993.51
2018-12-20T08:35:55.126Z,993.56
2018-12-20T08:36:55.103Z,993.56
2018-12-20T08:37:55.088Z,993.66
2018-12-20T08:38:55.059Z,993.61
2018-12-20T08:39:55.043Z,993.70
2018-12-20T08:40:55.018Z,993.64
2018-12-20T08:41:54.987Z,993.68
2018-12-20T08:42:54.968Z,993.67
2018-12-20T08:43:54.983Z,993.62
2018-12-20T08:44:54.923Z,993.64
2018-12-20T08:45:54.904Z,993.73
2018-12-20T08:46:54.888Z,993.73
2018-12-20T08:47:54.853Z,993.74
2018-12-20T08:48:54.837Z,993.81
2018-12-20T08:49:54.809Z,993.77
2018-12-20T08:50:54.790Z,993.81
2018-12-20T08:51:54.767Z,993.83
2018-12-20T08:52:54.751Z,993.81
2018-12-20T08:53:54.716Z,993.81
2018-12-20T08:54:54.697Z,993.89
2018-12-20T08:55:54.683Z,993.89
2018-12-20T08:56:54.652Z,993.93
2018-12-20T08:57:54.629Z,993.95
2018-12-20T08:58:54.616Z,993.96
2018-12-20T08:59:54.610Z,993.93
2018-12-20T09:00:54.569Z,993.89
2018-12-20T09:01:54.559Z,993.91
2018-12-20T09:02:54.518Z,993.93
2018-12-20T09:03:54.499Z,993.92
2018-12-20T09:04:54.476Z,993.91
2018-12-20T09:05:54.460Z,993.88
2018-12-20T09:06:54.441Z,993.96
2018-12-20T09:07:54.409Z,993.90
2018-12-20T09:08:54.389Z,993.95
2018-12-20T09:09:54.368Z,993.96
2018-12-20T09:10:54.355Z,993.96
2018-12-20T09:11:54.327Z,994.02
2018-12-20T09:12:54.301Z,994.00
2018-12-20T09:13:54.278Z,993.97
2018-12-20T09:14:54.252Z,994.04
2018-12-20T09:15:54.238Z,994.03
2018-12-20T09:17:02.514Z,994.01
2018-12-20T09:17:54.196Z,994.01
2018-12-20T09:18:54.196Z,994.07
2018-12-20T09:19:54.177Z,994.16
2018-12-20T09:20:54.132Z,994.09
2018-12-20T09:21:54.110Z,994.06
2018-12-20T09:22:54.111Z,994.10
2018-12-20T09:23:54.069Z,994.12
2018-12-20T09:24:54.033Z,994.15
2018-12-20T09:25:54.014Z,994.16
2018-12-20T09:26:53.985Z,994.17
2018-12-20T09:27:53.978Z,994.19
2018-12-20T09:28:53.942Z,994.19
2018-12-20T09:29:53.931Z,994.17
2018-12-20T09:30:53.902Z,994.15
2018-12-20T09:31:53.877Z,994.16
2018-12-20T09:32:53.860Z,994.20
2018-12-20T09:33:53.832Z,994.17
2018-12-20T09:34:53.816Z,994.18
2018-12-20T09:35:53.785Z,994.23
2018-12-20T09:36:53.780Z,994.19
2018-12-20T09:37:53.745Z,994.26
2018-12-20T09:38:53.721Z,994.25
2018-12-20T09:39:53.721Z,994.21
2018-12-20T09:40:53.678Z,994.18
2018-12-20T09:41:53.652Z,994.21
2018-12-20T09:42:53.633Z,994.21
2018-12-20T09:43:53.611Z,994.22
2018-12-20T09:44:53.587Z,994.22
2018-12-20T09:45:53.592Z,994.26
2018-12-20T09:46:53.542Z,994.22
2018-12-20T09:47:53.528Z,994.28
2018-12-20T09:48:53.526Z,994.28
2018-12-20T09:49:53.484Z,994.24
2018-12-20T09:50:53.462Z,994.22
2018-12-20T09:51:53.436Z,994.22
2018-12-20T09:52:53.423Z,994.16
2018-12-20T09:53:53.389Z,994.20
2018-12-20T09:54:53.368Z,994.24
2018-12-20T09:55:53.346Z,994.24
2018-12-20T09:56:53.323Z,994.21
2018-12-20T09:57:53.302Z,994.21
2018-12-20T09:58:53.273Z,994.27
2018-12-20T09:59:53.250Z,994.21
2018-12-20T10:00:53.231Z,994.15
2018-12-20T10:01:53.208Z,994.24
2018-12-20T10:02:53.182Z,994.20
2018-12-20T10:03:53.160Z,994.21
2018-12-20T10:04:53.154Z,994.20
2018-12-20T10:05:53.116Z,994.17
2018-12-20T10:06:53.093Z,994.17
2018-12-20T10:07:53.077Z,994.08
2018-12-20T10:08:53.056Z,994.12
2018-12-20T10:09:53.035Z,994.14
2018-12-20T10:10:53.003Z,994.09
2018-12-20T10:11:52.993Z,994.13
2018-12-20T10:12:52.970Z,994.07
2018-12-20T10:13:52.942Z,994.18
2018-12-20T10:14:52.919Z,994.16
2018-12-20T10:15:52.890Z,994.00
2018-12-20T10:16:52.868Z,994.12
2018-12-20T10:17:52.861Z,994.03
2018-12-20T10:18:52.943Z,994.08
2018-12-20T10:19:52.802Z,994.02
2018-12-20T10:20:52.781Z,994.05
2018-12-20T10:21:52.762Z,994.07
2018-12-20T10:22:52.738Z,994.13
2018-12-20T10:23:52.718Z,994.07
2018-12-20T10:24:52.695Z,994.06
2018-12-20T10:25:52.689Z,994.12
2018-12-20T10:26:52.644Z,994.10
2018-12-20T10:27:52.631Z,994.06
2018-12-20T10:28:52.609Z,994.04
2018-12-20T10:29:52.581Z,994.04
2018-12-20T10:30:52.559Z,993.97
2018-12-20T10:31:52.534Z,993.98
2018-12-20T10:32:52.521Z,993.96
2018-12-20T10:33:52.492Z,993.95
2018-12-20T10:34:52.472Z,993.96
2018-12-20T10:35:52.441Z,994.03
2018-12-20T10:36:52.425Z,993.96
2018-12-20T10:37:53.215Z,993.96
2018-12-20T10:38:52.384Z,993.94
2018-12-20T10:39:52.361Z,993.95
2018-12-20T10:40:52.333Z,993.94
2018-12-20T10:41:52.317Z,993.95
2018-12-20T10:42:52.295Z,993.94
2018-12-20T10:43:52.269Z,993.92
2018-12-20T10:44:52.249Z,993.97
2018-12-20T10:45:52.227Z,993.95
2018-12-20T10:46:52.203Z,993.93
2018-12-20T10:47:52.188Z,993.96
2018-12-20T10:48:52.163Z,993.92
2018-12-20T10:49:52.140Z,993.87
2018-12-20T10:50:52.125Z,993.92
2018-12-20T10:51:52.106Z,993.91
2018-12-20T10:52:52.071Z,993.89
2018-12-20T10:53:52.051Z,993.89
2018-12-20T10:54:52.032Z,994.00
2018-12-20T10:55:52.010Z,993.94
2018-12-20T10:56:51.987Z,993.91
2018-12-20T10:57:51.966Z,993.90
2018-12-20T10:58:51.940Z,993.91
2018-12-20T10:59:51.924Z,993.92
2018-12-20T11:00:51.895Z,993.88
2018-12-20T11:01:51.880Z,993.90
2018-12-20T11:02:51.918Z,993.82
2018-12-20T11:03:51.837Z,993.79
2018-12-20T11:04:51.818Z,993.78
2018-12-20T11:05:51.790Z,993.75
2018-12-20T11:06:51.765Z,993.72
2018-12-20T11:07:51.753Z,993.74
2018-12-20T11:08:51.717Z,993.75
2018-12-20T11:09:51.717Z,993.72
2018-12-20T11:10:51.685Z,993.67
2018-12-20T11:11:51.656Z,993.69
2018-12-20T11:12:51.637Z,993.67
2018-12-20T11:13:51.640Z,993.64
2018-12-20T11:14:51.611Z,993.69
2018-12-20T11:15:51.570Z,993.64
2018-12-20T11:16:51.559Z,993.70
2018-12-20T11:17:51.526Z,993.67
2018-12-20T11:18:51.510Z,993.66
2018-12-20T11:19:51.484Z,993.66
2018-12-20T11:20:51.455Z,993.60
2018-12-20T11:21:51.427Z,993.64
2018-12-20T11:22:51.408Z,993.64
2018-12-20T11:23:51.390Z,993.67
2018-12-20T11:24:51.366Z,993.63
2018-12-20T11:25:51.345Z,993.60
2018-12-20T11:26:51.317Z,993.61
2018-12-20T11:27:51.304Z,993.63
2018-12-20T11:28:51.275Z,993.57
2018-12-20T11:29:51.256Z,993.63
2018-12-20T11:30:51.227Z,993.60
2018-12-20T11:31:51.211Z,993.63
2018-12-20T11:32:51.190Z,993.62
2018-12-20T11:33:51.174Z,993.64
2018-12-20T11:34:51.145Z,993.65
2018-12-20T11:35:51.130Z,993.64
2018-12-20T11:36:51.118Z,993.67
2018-12-20T11:37:51.090Z,993.68
2018-12-20T11:38:51.101Z,993.59
2018-12-20T11:39:59.225Z,993.62
2018-12-20T11:40:51.015Z,993.65
2018-12-20T11:41:50.996Z,993.66
2018-12-20T11:42:50.969Z,993.65
2018-12-20T11:43:50.953Z,993.65
2018-12-20T11:44:50.928Z,993.66
2018-12-20T11:45:50.924Z,993.71
2018-12-20T11:46:50.902Z,993.68
2018-12-20T11:47:50.874Z,993.72
2018-12-20T11:48:50.854Z,993.77
2018-12-20T11:49:50.815Z,993.77
2018-12-20T11:50:50.799Z,993.76
2018-12-20T11:51:50.789Z,993.75
2018-12-20T11:52:50.751Z,993.70
2018-12-20T11:53:50.725Z,993.69
2018-12-20T11:54:50.723Z,993.64
2018-12-20T11:55:50.691Z,993.58
2018-12-20T11:56:50.658Z,993.64
2018-12-20T11:57:50.626Z,993.60
2018-12-20T11:58:50.676Z,993.64
2018-12-20T11:59:50.595Z,993.64
2018-12-20T12:00:50.595Z,993.62
2018-12-20T12:01:50.555Z,993.69
2018-12-20T12:02:50.543Z,993.68
2018-12-20T12:03:57.399Z,993.66
2018-12-20T12:04:50.484Z,993.63
2018-12-20T12:05:50.479Z,993.70
2018-12-20T12:06:50.442Z,993.62
2018-12-20T12:07:50.418Z,993.64
2018-12-20T12:08:50.398Z,993.65
2018-12-20T12:09:50.379Z,993.67
2018-12-20T12:10:50.350Z,993.68
2018-12-20T12:11:50.325Z,993.67
2018-12-20T12:12:50.333Z,993.68
2018-12-20T12:13:50.268Z,993.70
2018-12-20T12:14:50.252Z,993.66
2018-12-20T12:15:50.251Z,993.61
2018-12-20T12:16:50.204Z,993.68
2018-12-20T12:17:54.217Z,993.65
2018-12-20T12:18:50.174Z,993.63
2018-12-20T12:19:50.144Z,993.62
2018-12-20T12:20:50.140Z,993.60
2018-12-20T12:21:50.128Z,993.59
2018-12-20T12:22:50.074Z,993.60
2018-12-20T12:23:50.048Z,993.59
2018-12-20T12:24:50.115Z,993.61
2018-12-20T12:25:50.009Z,993.58
2018-12-20T12:26:50.007Z,993.65
2018-12-20T12:27:49.962Z,993.67